createdAt,value
2022-11-19T00:01:36.391Z,22.80
2022-11-19T00:04:24.112Z,21.92
2022-11-19T00:07:11.506Z,22.13
2022-11-19T00:09:58.933Z,20.80
2022-11-19T00:12:55.248Z,24.10
2022-11-19T00:15:42.675Z,24.75
2022-11-19T00:18:30.682Z,22.75
2022-11-19T00:24:06.359Z,17.98
2022-11-19T00:26:53.821Z,23.67
2022-11-19T00:29:41.209Z,24.65
2022-11-19T00:32:28.733Z,23.15
2022-11-19T00:35:16.205Z,23.77
2022-11-19T00:38:03.876Z,21.13
2022-11-19T00:40:51.502Z,23.58
2022-11-19T00:43:48.469Z,14.93
2022-11-19T00:46:36.338Z,22.77
2022-11-19T00:49:25.026Z,22.30
2022-11-19T00:52:12.985Z,23.98
2022-11-19T00:55:00.472Z,18.60
2022-11-19T00:57:47.845Z,23.38
2022-11-19T01:00:35.397Z,21.45
2022-11-19T01:03:24.544Z,22.98
2022-11-19T01:06:17.837Z,22.42
2022-11-19T01:09:07.172Z,21.63
2022-11-19T01:11:54.542Z,23.67
2022-11-19T01:14:41.919Z,19.38
2022-11-19T01:17:29.855Z,22.65
2022-11-19T01:20:17.482Z,21.98
2022-11-19T01:23:04.940Z,17.92
2022-11-19T01:25:52.411Z,23.45
2022-11-19T01:28:41.052Z,16.75
2022-11-19T01:31:30.376Z,24.23
2022-11-19T01:34:17.744Z,19.40
2022-11-19T01:37:05.130Z,22.27
2022-11-19T01:39:52.546Z,18.70
2022-11-19T01:42:51.801Z,23.45
2022-11-19T01:45:49.830Z,25.52
2022-11-19T01:51:44.039Z,19.73
2022-11-19T01:54:54.046Z,23.27
2022-11-19T01:57:41.841Z,21.77
2022-11-19T02:00:29.825Z,25.42
2022-11-19T02:06:08.295Z,23.05
2022-11-19T02:08:56.086Z,25.13
2022-11-19T02:12:04.585Z,18.27
2022-11-19T02:15:27.211Z,25.08
2022-11-19T02:18:42.449Z,25.17
2022-11-19T02:21:46.109Z,20.30
2022-11-19T02:24:55.853Z,26.35
2022-11-19T02:28:01.489Z,25.63
2022-11-19T02:30:54.173Z,26.50
2022-11-19T02:33:56.512Z,27.27
2022-11-19T02:37:10.465Z,20.80
2022-11-19T02:40:09.589Z,21.33
2022-11-19T02:43:16.997Z,27.40
2022-11-19T02:46:14.724Z,26.70
2022-11-19T02:49:02.765Z,24.05
2022-11-19T02:57:26.170Z,22.08
2022-11-19T03:00:33.336Z,25.67
2022-11-19T03:03:40.790Z,27.55
2022-11-19T03:06:32.756Z,26.45
2022-11-19T03:09:21.720Z,26.73
2022-11-19T03:12:23.271Z,26.23
2022-11-19T03:16:05.522Z,25.85
2022-11-19T03:19:26.681Z,26.40
2022-11-19T03:22:25.298Z,27.15
2022-11-19T03:25:38.790Z,26.00
2022-11-19T03:28:34.443Z,27.73
2022-11-19T03:31:26.051Z,26.90
2022-11-19T03:34:20.493Z,28.17
2022-11-19T03:37:10.906Z,27.25
2022-11-19T03:40:02.015Z,26.55
2022-11-19T03:42:55.611Z,28.52
2022-11-19T03:45:47.602Z,25.67
2022-11-19T03:48:39.563Z,25.83
2022-11-19T03:51:57.241Z,26.08
2022-11-19T03:57:32.211Z,24.63
2022-11-19T04:00:19.837Z,24.27
2022-11-19T04:03:07.292Z,26.20
2022-11-19T04:05:54.613Z,24.95
2022-11-19T04:08:42.029Z,23.90
2022-11-19T04:11:31.517Z,24.98
2022-11-19T04:14:18.898Z,25.27
2022-11-19T04:17:06.301Z,16.88
2022-11-19T04:19:54.070Z,22.40
2022-11-19T04:22:42.193Z,24.63
2022-11-19T04:25:29.560Z,23.85
2022-11-19T04:28:17.104Z,23.30
2022-11-19T04:31:04.525Z,22.23
2022-11-19T04:33:51.846Z,23.23
2022-11-19T04:36:41.770Z,23.85
2022-11-19T04:39:29.250Z,23.15
2022-11-19T04:42:16.602Z,21.95
2022-11-19T04:45:04.410Z,23.35
2022-11-19T04:47:51.778Z,21.15
2022-11-19T04:50:41.878Z,21.73
2022-11-19T04:53:29.334Z,22.42
2022-11-19T04:56:17.097Z,19.23
2022-11-19T04:59:05.334Z,19.95
2022-11-19T05:01:53.429Z,22.52
2022-11-19T05:04:42.951Z,21.80
2022-11-19T05:07:30.539Z,21.52
2022-11-19T05:10:18.084Z,21.63
2022-11-19T05:13:05.506Z,22.52
2022-11-19T05:15:53.257Z,20.83
2022-11-19T05:18:40.682Z,21.25
2022-11-19T05:21:28.166Z,22.63
2022-11-19T05:24:15.622Z,21.08
2022-11-19T05:27:03.824Z,23.50
2022-11-19T05:29:51.283Z,21.10
2022-11-19T05:32:39.027Z,21.27
2022-11-19T05:35:26.732Z,20.65
2022-11-19T05:38:14.126Z,21.30
2022-11-19T05:41:01.551Z,21.45
2022-11-19T05:43:48.959Z,12.38
2022-11-19T05:46:36.841Z,21.67
2022-11-19T05:49:24.294Z,13.68
2022-11-19T05:52:12.050Z,15.82
2022-11-19T05:54:59.404Z,17.42
2022-11-19T05:57:46.872Z,21.30
2022-11-19T06:00:34.245Z,19.75
2022-11-19T06:03:21.724Z,11.88
2022-11-19T06:06:09.470Z,19.30
2022-11-19T06:08:58.875Z,18.08
2022-11-19T06:11:50.352Z,17.55
2022-11-19T06:14:37.966Z,20.38
2022-11-19T06:17:25.561Z,19.75
2022-11-19T06:20:13.092Z,22.20
2022-11-19T06:23:00.523Z,20.50
2022-11-19T06:25:50.612Z,20.75
2022-11-19T06:28:37.953Z,15.75
2022-11-19T06:31:25.499Z,19.77
2022-11-19T06:34:13.017Z,20.70
2022-11-19T06:37:00.453Z,18.50
2022-11-19T06:39:48.054Z,18.67
2022-11-19T06:42:38.443Z,19.90
2022-11-19T06:45:25.864Z,18.98
2022-11-19T06:48:13.331Z,18.02
2022-11-19T06:51:02.040Z,13.13
2022-11-19T06:53:49.525Z,12.52
2022-11-19T06:56:36.977Z,17.13
2022-11-19T06:59:24.383Z,13.40
2022-11-19T07:02:13.082Z,16.20
2022-11-19T07:05:00.490Z,16.33
2022-11-19T07:07:47.845Z,10.80
2022-11-19T07:10:35.782Z,16.20
2022-11-19T07:13:23.371Z,13.48
2022-11-19T07:16:10.737Z,17.02
2022-11-19T07:19:04.791Z,15.40
2022-11-19T07:21:52.228Z,18.02
2022-11-19T07:24:39.557Z,16.52
2022-11-19T07:27:26.923Z,15.43
2022-11-19T07:30:15.949Z,18.35
2022-11-19T07:33:03.528Z,19.02
2022-11-19T07:35:51.095Z,17.25
2022-11-19T07:38:39.336Z,16.38
2022-11-19T07:41:44.815Z,18.25
2022-11-19T07:44:32.186Z,18.20
2022-11-19T07:47:19.633Z,15.82
2022-11-19T07:50:07.493Z,16.55
2022-11-19T07:52:59.293Z,16.30
2022-11-19T07:55:47.976Z,16.40
2022-11-19T07:58:35.393Z,17.60
2022-11-19T08:01:24.767Z,16.70
2022-11-19T08:04:12.242Z,15.85
2022-11-19T08:06:59.589Z,18.08
2022-11-19T08:14:23.713Z,16.32
2022-11-19T08:17:09.433Z,16.48
2022-11-19T08:19:36.688Z,16.42
2022-11-19T08:22:03.674Z,16.38
2022-11-19T08:24:30.695Z,15.20
2022-11-19T08:26:57.770Z,17.63
2022-11-19T08:29:25.152Z,15.57
2022-11-19T08:31:52.587Z,15.60
2022-11-19T08:34:20.223Z,16.88
2022-11-19T08:36:47.747Z,14.73
2022-11-19T08:39:15.184Z,15.32
2022-11-19T08:42:01.282Z,15.63
2022-11-19T08:44:28.930Z,15.70
2022-11-19T08:46:56.180Z,15.25
2022-11-19T08:49:23.563Z,16.02
2022-11-19T08:51:50.885Z,15.53
2022-11-19T08:54:18.584Z,15.15
2022-11-19T08:56:46.319Z,16.88
2022-11-19T08:59:13.583Z,15.88
2022-11-19T09:01:40.886Z,14.95
2022-11-19T09:04:08.132Z,15.00
2022-11-19T09:06:35.683Z,15.03
2022-11-19T09:09:04.527Z,14.95
2022-11-19T09:11:32.196Z,15.20
2022-11-19T09:13:59.680Z,14.27
2022-11-19T09:16:27.280Z,15.00
2022-11-19T09:18:54.564Z,13.25
2022-11-19T09:21:21.920Z,5.28
2022-11-19T09:23:49.099Z,13.90
2022-11-19T09:26:19.073Z,14.15
2022-11-19T09:28:46.700Z,14.70
2022-11-19T09:31:17.919Z,14.15
2022-11-19T09:33:49.958Z,12.63
2022-11-19T09:36:19.597Z,14.57
2022-11-19T09:38:48.305Z,13.85
2022-11-19T09:41:46.433Z,14.45
2022-11-19T09:48:02.915Z,13.32
2022-11-19T09:50:51.833Z,13.07
2022-11-19T09:53:23.271Z,15.45
2022-11-19T09:55:54.139Z,14.82
2022-11-19T09:58:41.542Z,14.02
2022-11-19T10:01:15.112Z,14.43
2022-11-19T10:03:50.013Z,15.20
2022-11-19T10:06:42.717Z,13.90
2022-11-19T10:09:45.392Z,14.60
2022-11-19T10:13:12.282Z,13.32
2022-11-19T10:16:39.982Z,13.32
2022-11-19T10:19:22.226Z,14.63
2022-11-19T10:22:17.358Z,13.88
2022-11-19T10:25:14.603Z,14.70
2022-11-19T10:28:08.462Z,12.57
2022-11-19T10:30:37.320Z,14.18
2022-11-19T10:33:32.680Z,14.60
2022-11-19T10:36:12.285Z,12.93
2022-11-19T10:39:01.065Z,13.15
2022-11-19T10:41:57.991Z,13.80
2022-11-19T10:44:45.925Z,13.57
2022-11-19T10:48:12.594Z,12.30
2022-11-19T10:50:42.082Z,12.60
2022-11-19T10:53:23.969Z,13.27
2022-11-19T10:55:57.614Z,13.10
2022-11-19T10:58:39.672Z,13.23
2022-11-19T11:01:31.412Z,14.25
2022-11-19T11:04:21.423Z,13.40
2022-11-19T11:07:05.558Z,13.93
2022-11-19T11:09:41.669Z,13.52
2022-11-19T11:12:41.145Z,13.77
2022-11-19T11:15:25.197Z,13.10
2022-11-19T11:18:06.667Z,12.38
2022-11-19T11:20:36.363Z,11.23
2022-11-19T11:23:26.471Z,11.25
2022-11-19T11:26:00.110Z,10.73
2022-11-19T11:28:27.670Z,11.40
2022-11-19T11:31:03.724Z,10.70
2022-11-19T11:33:55.395Z,9.35
2022-11-19T11:36:27.833Z,10.15
2022-11-19T11:39:00.242Z,10.27
2022-11-19T11:44:36.918Z,10.00
2022-11-19T11:47:23.574Z,9.63
2022-11-19T11:50:20.011Z,9.45
2022-11-19T11:52:54.129Z,10.88
2022-11-19T11:55:24.148Z,11.63
2022-11-19T11:58:02.430Z,10.70
2022-11-19T12:03:20.380Z,10.00
2022-11-19T12:06:06.006Z,10.05
2022-11-19T12:09:03.564Z,11.43
2022-11-19T12:11:56.244Z,12.45
2022-11-19T12:14:47.123Z,11.90
2022-11-19T12:17:57.718Z,12.18
2022-11-19T12:20:47.793Z,13.20
2022-11-19T12:23:47.983Z,11.55
2022-11-19T12:26:40.158Z,13.07
2022-11-19T12:29:26.142Z,11.27
2022-11-19T12:32:17.458Z,11.85
2022-11-19T12:35:32.189Z,12.65
2022-11-19T12:38:05.737Z,14.20
2022-11-19T12:41:10.183Z,11.90
2022-11-19T12:44:03.139Z,13.18
2022-11-19T12:47:05.575Z,12.30
2022-11-19T12:50:04.001Z,13.55
2022-11-19T12:53:34.990Z,12.55
2022-11-19T12:56:23.835Z,13.38
2022-11-19T12:59:45.670Z,12.77
2022-11-19T13:02:29.936Z,11.45
2022-11-19T13:05:14.273Z,11.75
2022-11-19T13:08:12.550Z,12.20
2022-11-19T13:10:49.397Z,13.00
2022-11-19T13:13:25.503Z,12.07
2022-11-19T13:16:07.523Z,12.80
2022-11-19T13:18:40.078Z,13.00
2022-11-19T13:21:25.421Z,12.40
2022-11-19T13:23:55.879Z,13.07
2022-11-19T13:26:31.652Z,11.15
2022-11-19T13:29:29.163Z,10.10
2022-11-19T13:32:04.397Z,12.30
2022-11-19T13:34:41.996Z,11.23
2022-11-19T13:37:19.644Z,11.65
2022-11-19T13:39:59.996Z,12.93
2022-11-19T13:43:04.121Z,11.85
2022-11-19T13:45:42.557Z,11.88
2022-11-19T13:48:39.817Z,11.57
2022-11-19T13:51:43.260Z,11.77
2022-11-19T13:54:41.377Z,11.73
2022-11-19T13:57:43.231Z,11.82
2022-11-19T14:00:28.908Z,11.45
2022-11-19T14:03:01.700Z,12.25
2022-11-19T14:06:14.303Z,12.20
2022-11-19T14:09:00.418Z,11.90
2022-11-19T14:11:50.088Z,11.57
2022-11-19T14:15:12.514Z,11.27
2022-11-19T14:18:36.209Z,12.45
2022-11-19T14:22:12.598Z,11.73
2022-11-19T14:24:58.473Z,10.85
2022-11-19T14:27:30.325Z,11.63
2022-11-19T14:30:20.157Z,13.13
2022-11-19T14:32:51.762Z,12.02
2022-11-19T14:35:35.705Z,12.23
2022-11-19T14:38:35.033Z,12.77
2022-11-19T14:41:20.935Z,11.60
2022-11-19T14:44:08.725Z,12.13
2022-11-19T16:45:35.971Z,14.63
2022-11-19T16:48:03.405Z,15.13
2022-11-19T16:50:42.321Z,16.40
2022-11-19T16:53:12.601Z,15.27
2022-11-19T17:07:32.538Z,15.35
2022-11-19T17:10:24.248Z,15.05
2022-11-19T17:13:23.718Z,14.13
2022-11-19T17:15:51.782Z,15.27
2022-11-19T17:18:34.429Z,15.57
2022-11-19T17:21:23.568Z,16.08
2022-11-19T17:23:52.100Z,17.17
2022-11-19T17:26:23.880Z,15.10
2022-11-19T17:28:59.673Z,15.65
2022-11-19T17:31:28.258Z,16.73
2022-11-19T17:34:19.284Z,15.90
2022-11-19T17:36:47.032Z,17.73
2022-11-19T17:39:15.010Z,15.67
2022-11-19T17:42:03.070Z,16.70
2022-11-19T17:44:34.531Z,15.23
2022-11-19T17:47:21.860Z,15.27
2022-11-19T17:49:50.658Z,14.82
2022-11-19T17:52:33.383Z,15.27
2022-11-19T17:55:30.945Z,15.48
2022-11-19T17:57:58.265Z,15.98
2022-11-19T18:00:25.677Z,16.73
2022-11-19T18:03:29.793Z,15.65
2022-11-19T18:05:57.159Z,15.82
2022-11-19T18:08:24.441Z,15.43
2022-11-19T18:10:52.929Z,14.90
2022-11-19T18:13:26.994Z,15.10
2022-11-19T18:15:54.535Z,15.05
2022-11-19T18:18:21.789Z,15.43
2022-11-19T18:20:50.542Z,16.88
2022-11-19T18:23:17.864Z,14.50
2022-11-19T18:25:45.531Z,16.40
2022-11-19T18:28:12.724Z,14.77
2022-11-19T18:30:40.106Z,15.65
2022-11-19T18:33:10.350Z,17.00
2022-11-19T18:35:37.682Z,16.38
2022-11-19T18:38:04.973Z,14.93
2022-11-19T18:40:32.281Z,15.73
2022-11-19T18:47:23.364Z,14.75
2022-11-19T18:49:50.669Z,15.68
2022-11-19T18:52:18.211Z,15.35
2022-11-19T18:54:45.865Z,16.92
2022-11-19T18:57:13.500Z,17.02
2022-11-19T18:59:41.541Z,16.77
2022-11-19T19:02:10.807Z,16.80
2022-11-19T19:04:38.257Z,16.92
2022-11-19T19:07:05.774Z,16.00
2022-11-19T19:09:33.206Z,17.00
2022-11-19T19:12:18.382Z,18.55
2022-11-19T19:14:49.191Z,17.45
2022-11-19T19:17:17.347Z,18.23
2022-11-19T19:19:45.791Z,18.08
2022-11-19T19:22:13.264Z,17.50
2022-11-19T19:24:40.616Z,18.63
2022-11-19T19:27:07.798Z,19.42
2022-11-19T19:29:35.164Z,17.65
2022-11-19T19:32:02.481Z,21.93
2022-11-19T19:34:30.195Z,17.50
2022-11-19T19:36:57.682Z,15.18
2022-11-19T19:39:24.969Z,17.25
2022-11-19T19:41:53.647Z,15.25
2022-11-19T19:44:20.945Z,14.80
2022-11-19T19:46:49.061Z,14.68
2022-11-19T19:49:16.411Z,16.40
2022-11-19T19:51:43.702Z,15.65
2022-11-19T19:54:11.051Z,17.70
2022-11-19T19:56:39.876Z,16.27
2022-11-19T19:59:07.192Z,16.98
2022-11-19T20:01:36.565Z,16.48
2022-11-19T20:04:08.808Z,15.80
2022-11-19T20:06:41.580Z,16.20
2022-11-19T20:09:09.638Z,15.35
2022-11-19T20:11:38.684Z,16.45
2022-11-19T20:14:06.080Z,16.42
2022-11-19T20:16:35.119Z,16.85
2022-11-19T20:19:03.364Z,16.60
2022-11-19T20:21:34.210Z,17.75
2022-11-19T20:24:04.892Z,16.50
2022-11-19T20:26:35.951Z,17.02
2022-11-19T20:29:06.280Z,17.38
2022-11-19T20:31:35.393Z,16.52
2022-11-19T20:34:05.554Z,18.23
2022-11-19T20:36:35.411Z,16.90
2022-11-19T20:39:04.033Z,18.63
2022-11-19T20:41:50.327Z,18.20
2022-11-19T20:44:22.782Z,17.58
2022-11-19T20:46:54.888Z,17.70
2022-11-19T20:49:25.617Z,18.48
2022-11-19T20:51:54.157Z,17.77
2022-11-19T20:56:50.832Z,17.85
2022-11-19T20:59:19.461Z,15.77
2022-11-19T21:01:50.164Z,18.23
2022-11-19T21:04:18.933Z,18.42
2022-11-19T21:06:46.881Z,17.50
2022-11-19T21:09:15.956Z,16.23
2022-11-19T21:11:44.103Z,18.73
2022-11-19T21:14:12.611Z,16.92
2022-11-19T21:16:39.790Z,18.40
2022-11-19T21:19:07.065Z,19.02
2022-11-19T21:21:35.497Z,19.73
2022-11-19T21:24:03.119Z,20.25
2022-11-19T21:26:30.490Z,20.83
2022-11-19T21:28:59.450Z,21.77
2022-11-19T21:31:45.350Z,20.25
2022-11-19T21:34:18.542Z,19.23
2022-11-19T21:36:47.679Z,20.27
2022-11-19T21:39:17.276Z,19.83
2022-11-19T21:41:45.372Z,19.83
2022-11-19T21:44:16.733Z,19.92
2022-11-19T21:46:46.921Z,18.45
2022-11-19T21:49:14.214Z,19.48
2022-11-19T21:51:41.491Z,19.75
2022-11-19T21:54:08.813Z,17.98
2022-11-19T21:56:38.789Z,17.27
2022-11-19T21:59:07.372Z,16.80
2022-11-19T22:01:34.869Z,21.83
2022-11-19T22:04:02.892Z,17.75
2022-11-19T22:06:31.998Z,18.77
2022-11-19T22:08:59.229Z,18.40
2022-11-19T22:11:29.251Z,18.58
2022-11-19T22:14:08.426Z,16.92
2022-11-19T22:16:39.521Z,16.60
2022-11-19T22:19:07.385Z,17.83
2022-11-19T22:21:34.788Z,17.77
2022-11-19T22:24:02.815Z,17.67
2022-11-19T22:26:30.582Z,17.50
2022-11-19T22:28:58.452Z,17.23
2022-11-19T22:31:26.324Z,17.08
2022-11-19T22:33:54.067Z,18.50
2022-11-19T22:36:23.408Z,16.92
2022-11-19T22:38:52.268Z,17.15
2022-11-19T22:41:21.699Z,18.80
2022-11-19T22:43:50.413Z,18.67
2022-11-19T22:46:19.604Z,16.48
2022-11-19T22:48:47.022Z,19.00
2022-11-19T22:51:17.272Z,20.20
2022-11-19T22:53:45.145Z,20.92
2022-11-19T22:56:17.278Z,21.17
2022-11-19T22:58:44.749Z,21.40
2022-11-19T23:01:18.393Z,19.55
2022-11-19T23:03:46.984Z,18.02
2022-11-19T23:06:15.573Z,20.48
2022-11-19T23:08:44.255Z,19.00
2022-11-19T23:11:14.676Z,18.73
2022-11-19T23:13:44.554Z,19.58
2022-11-19T23:16:12.014Z,19.52
2022-11-19T23:18:52.073Z,19.90
2022-11-19T23:21:23.911Z,18.33
2022-11-19T23:23:51.729Z,18.38
2022-11-19T23:26:24.180Z,17.80
2022-11-19T23:28:53.455Z,18.38
2022-11-19T23:31:33.738Z,19.35
2022-11-19T23:34:01.600Z,18.95
2022-11-19T23:36:36.316Z,18.38
2022-11-19T23:39:05.591Z,18.80
2022-11-19T23:41:34.407Z,18.10
2022-11-19T23:44:02.318Z,21.33
2022-11-19T23:46:35.812Z,20.15
2022-11-19T23:49:05.483Z,20.52
2022-11-19T23:51:38.326Z,21.23
2022-11-19T23:54:06.823Z,20.23
2022-11-19T23:59:05.889Z,18.88
